Time;durP1;ratioP1;P1;durP2;ratioP2;P2;SDS_P1;SDS_P2;PMS_P1;PMS_P2;Temp;Humidity;BMP_temperature;BMP_pressure;BME280_temperature;BME280_humidity;BME280_pressure;Samples;Min_cycle;Max_cycle;Signal;HPM_P1;HPM_P2
2023/09/15 00:01:12;;;;;;;28.70;17.77;;;;;;;;;;5034960;28;20032;-88
2023/09/15 00:03:38;;;;;;;24.83;16.95;;;;;;;;;;5022440;28;20281;-88
2023/09/15 00:06:08;;;;;;;25.67;17.02;;;;;;;;;;5052105;28;20021;-88
2023/09/15 00:08:34;;;;;;;30.30;16.85;;;;;;;;;;5040076;28;20145;-87
2023/09/15 00:10:59;;;;;;;32.60;16.38;;;;;;;;;;5035729;28;20064;-88
2023/09/15 00:13:25;;;;;;;23.40;15.10;;;;;;;;;;5069279;28;20072;-88
2023/09/15 00:15:51;;;;;;;27.42;16.25;;;;;;;;;;5043939;28;20337;-88
2023/09/15 00:18:18;;;;;;;32.33;16.73;;;;;;;;;;5036059;28;20484;-88
2023/09/15 00:20:44;;;;;;;27.25;16.58;;;;;;;;;;5045876;28;20475;-88
2023/09/15 00:23:09;;;;;;;28.83;16.42;;;;;;;;;;5029217;28;20396;-88
2023/09/15 00:25:35;;;;;;;37.63;17.07;;;;;;;;;;5043616;28;20022;-88
2023/09/15 00:28:02;;;;;;;34.23;16.77;;;;;;;;;;5046260;28;20286;-88
2023/09/15 00:30:27;;;;;;;25.38;16.35;;;;;;;;;;5047698;28;20278;-87
2023/09/15 00:32:53;;;;;;;29.40;15.65;;;;;;;;;;5049668;28;20021;-87
2023/09/15 00:35:20;;;;;;;28.98;16.45;;;;;;;;;;5045946;28;20033;-87
2023/09/15 00:37:46;;;;;;;33.80;16.35;;;;;;;;;;5047351;28;20022;-88
2023/09/15 00:40:11;;;;;;;28.02;16.40;;;;;;;;;;5017690;28;20025;-87
2023/09/15 00:42:37;;;;;;;25.25;16.30;;;;;;;;;;5036328;28;20036;-88
2023/09/15 00:45:06;;;;;;;28.40;16.10;;;;;;;;;;5041544;28;20356;-87
2023/09/15 00:47:31;;;;;;;26.55;16.35;;;;;;;;;;5036915;28;20528;-87
2023/09/15 00:49:57;;;;;;;26.98;16.75;;;;;;;;;;5041519;28;20060;-89
2023/09/15 00:52:23;;;;;;;27.83;16.67;;;;;;;;;;5048589;28;20021;-81
2023/09/15 00:54:48;;;;;;;28.45;15.45;;;;;;;;;;5038973;28;20437;-81
2023/09/15 00:57:14;;;;;;;26.05;16.02;;;;;;;;;;5030290;28;20030;-81
2023/09/15 00:59:40;;;;;;;27.10;16.48;;;;;;;;;;5030716;28;20844;-81
2023/09/15 01:02:06;;;;;;;27.73;15.57;;;;;;;;;;5039707;28;20089;-81
2023/09/15 01:04:32;;;;;;;26.67;16.92;;;;;;;;;;5040337;28;20025;-81
2023/09/15 01:06:57;;;;;;;26.60;15.85;;;;;;;;;;5041186;28;20109;-82
2023/09/15 01:09:23;;;;;;;26.60;15.77;;;;;;;;;;5059103;28;20480;-82
2023/09/15 01:11:50;;;;;;;29.48;15.73;;;;;;;;;;5040407;28;20022;-82
2023/09/15 01:14:15;;;;;;;28.02;15.82;;;;;;;;;;5036312;28;20092;-81
2023/09/15 01:17:10;;;;;;;27.30;15.88;;;;;;;;;;5071124;28;20511;-82
2023/09/15 01:19:53;;;;;;;25.42;15.35;;;;;;;;;;5026449;28;20037;-81
2023/09/15 01:22:36;;;;;;;30.05;16.40;;;;;;;;;;5023141;28;20512;-81
2023/09/15 01:25:19;;;;;;;26.02;14.80;;;;;;;;;;5058688;28;20521;-82
2023/09/15 01:28:03;;;;;;;32.40;16.92;;;;;;;;;;5025977;28;20040;-81
2023/09/15 01:30:29;;;;;;;26.05;15.98;;;;;;;;;;5037865;28;20034;-82
2023/09/15 01:32:56;;;;;;;25.65;15.43;;;;;;;;;;5043043;28;20069;-81
2023/09/15 01:35:21;;;;;;;28.15;15.48;;;;;;;;;;5043826;28;20466;-82
2023/09/15 01:37:47;;;;;;;31.83;16.35;;;;;;;;;;5043014;28;20512;-82
2023/09/15 01:40:12;;;;;;;25.67;16.30;;;;;;;;;;5032346;28;20024;-81
2023/09/15 01:42:38;;;;;;;30.13;15.57;;;;;;;;;;5044185;28;20799;-81
2023/09/15 01:45:04;;;;;;;28.10;15.93;;;;;;;;;;5045955;28;20263;-82
2023/09/15 01:47:30;;;;;;;26.05;16.20;;;;;;;;;;5040262;28;20040;-81
2023/09/15 01:49:56;;;;;;;25.08;15.20;;;;;;;;;;5042057;28;20614;-81
2023/09/15 01:52:22;;;;;;;30.90;16.75;;;;;;;;;;5031009;28;20025;-81
2023/09/15 01:54:48;;;;;;;26.10;15.98;;;;;;;;;;5038471;28;20438;-81
2023/09/15 01:57:14;;;;;;;23.85;15.85;;;;;;;;;;5042323;28;20032;-81
2023/09/15 01:59:39;;;;;;;26.38;16.02;;;;;;;;;;5024856;28;20029;-82
2023/09/15 02:02:04;;;;;;;23.60;15.37;;;;;;;;;;5039175;28;20026;-88
2023/09/15 02:04:31;;;;;;;24.00;14.73;;;;;;;;;;5034452;28;20294;-88
2023/09/15 02:06:57;;;;;;;23.90;14.95;;;;;;;;;;5024118;28;20037;-89
2023/09/15 02:09:22;;;;;;;24.25;14.93;;;;;;;;;;5036990;28;20041;-89
2023/09/15 02:11:47;;;;;;;23.20;15.20;;;;;;;;;;5016089;28;20075;-88
2023/09/15 02:14:13;;;;;;;28.30;14.90;;;;;;;;;;5023343;28;20029;-89
2023/09/15 02:16:38;;;;;;;28.70;16.13;;;;;;;;;;5018923;28;20287;-88
2023/09/15 02:19:06;;;;;;;25.97;15.70;;;;;;;;;;5015733;28;20280;-88
2023/09/15 02:21:31;;;;;;;24.02;15.18;;;;;;;;;;5041533;28;20327;-88
2023/09/15 02:23:58;;;;;;;24.52;15.27;;;;;;;;;;5015204;28;20061;-88
2023/09/15 02:26:23;;;;;;;30.15;15.93;;;;;;;;;;5065581;28;20018;-87
2023/09/15 02:28:49;;;;;;;24.73;14.73;;;;;;;;;;5022330;28;20079;-88
2023/09/15 02:31:15;;;;;;;29.10;14.90;;;;;;;;;;5017215;28;20310;-88
2023/09/15 02:33:41;;;;;;;37.30;15.50;;;;;;;;;;5037423;28;20030;-90
2023/09/15 02:36:06;;;;;;;25.02;15.27;;;;;;;;;;5015484;28;20038;-88
2023/09/15 02:38:33;;;;;;;26.50;14.90;;;;;;;;;;5033519;28;20033;-88
2023/09/15 02:40:58;;;;;;;26.40;14.90;;;;;;;;;;5047436;28;20373;-88
2023/09/15 02:43:23;;;;;;;26.27;14.03;;;;;;;;;;5024666;28;20033;-88
2023/09/15 02:45:48;;;;;;;21.57;13.90;;;;;;;;;;5064637;28;21447;-88
2023/09/15 02:48:14;;;;;;;25.38;13.75;;;;;;;;;;5034672;28;20264;-88
2023/09/15 02:50:42;;;;;;;24.23;14.03;;;;;;;;;;5031064;28;20384;-88
2023/09/15 02:53:07;;;;;;;25.85;15.70;;;;;;;;;;5032212;28;20778;-88
2023/09/15 02:55:33;;;;;;;25.20;14.38;;;;;;;;;;5042409;28;20088;-88
2023/09/15 02:57:58;;;;;;;25.10;14.43;;;;;;;;;;5035934;28;20385;-87
2023/09/15 03:00:23;;;;;;;27.45;14.95;;;;;;;;;;5030479;28;20279;-87
2023/09/15 03:02:48;;;;;;;32.60;14.37;;;;;;;;;;5012020;28;20494;-88
2023/09/15 03:05:14;;;;;;;25.20;14.60;;;;;;;;;;5020942;28;20358;-87
2023/09/15 03:07:39;;;;;;;30.07;14.37;;;;;;;;;;5047023;28;20556;-87
2023/09/15 03:10:06;;;;;;;25.92;14.80;;;;;;;;;;5037317;28;20276;-87
2023/09/15 03:12:31;;;;;;;26.33;15.35;;;;;;;;;;5032620;28;20031;-81
2023/09/15 03:14:56;;;;;;;23.13;14.57;;;;;;;;;;5036296;28;20030;-81
2023/09/15 03:17:22;;;;;;;22.20;14.43;;;;;;;;;;5041785;28;20824;-81
2023/09/15 03:19:47;;;;;;;26.77;15.52;;;;;;;;;;5040595;28;20382;-81
2023/09/15 03:22:12;;;;;;;23.67;14.00;;;;;;;;;;5075557;28;20454;-81
2023/09/15 03:24:37;;;;;;;26.02;15.10;;;;;;;;;;5043675;28;20285;-81
2023/09/15 03:27:03;;;;;;;29.55;15.52;;;;;;;;;;5049679;28;20480;-81
2023/09/15 03:29:28;;;;;;;30.95;14.90;;;;;;;;;;5044277;28;20039;-81
2023/09/15 03:31:54;;;;;;;24.13;14.40;;;;;;;;;;5049448;28;20028;-81
2023/09/15 03:34:19;;;;;;;30.08;14.13;;;;;;;;;;5071256;28;20325;-81
2023/09/15 03:36:45;;;;;;;28.10;14.23;;;;;;;;;;5043726;28;20492;-81
2023/09/15 03:39:11;;;;;;;31.25;14.40;;;;;;;;;;5038189;28;20013;-81
2023/09/15 03:41:37;;;;;;;22.73;14.87;;;;;;;;;;5061231;28;20036;-81
2023/09/15 03:44:03;;;;;;;21.88;13.45;;;;;;;;;;5073400;28;20291;-81
2023/09/15 03:46:28;;;;;;;27.77;14.23;;;;;;;;;;5032729;28;20028;-81
2023/09/15 03:48:53;;;;;;;19.48;13.25;;;;;;;;;;5044283;28;20017;-81
2023/09/15 03:51:19;;;;;;;22.00;13.00;;;;;;;;;;5020791;28;20017;-81
2023/09/15 03:53:44;;;;;;;25.77;14.40;;;;;;;;;;5053592;28;20060;-81
2023/09/15 03:56:10;;;;;;;30.15;13.88;;;;;;;;;;5034617;28;20480;-81
2023/09/15 03:58:35;;;;;;;24.23;13.90;;;;;;;;;;5045990;28;20024;-81
2023/09/15 04:01:00;;;;;;;23.93;13.30;;;;;;;;;;5043389;28;20779;-81
2023/09/15 04:03:26;;;;;;;21.77;13.60;;;;;;;;;;5065997;28;20330;-82
2023/09/15 04:05:51;;;;;;;21.83;13.70;;;;;;;;;;5037191;28;20029;-81
2023/09/15 04:08:17;;;;;;;25.25;13.55;;;;;;;;;;5036347;28;20116;-81
2023/09/15 04:10:43;;;;;;;25.93;14.40;;;;;;;;;;5053010;28;20017;-81
2023/09/15 04:13:08;;;;;;;22.45;13.77;;;;;;;;;;5044612;28;20642;-81
2023/09/15 04:15:34;;;;;;;24.30;13.63;;;;;;;;;;5039717;28;20026;-81
2023/09/15 04:17:59;;;;;;;23.90;14.38;;;;;;;;;;5062811;28;20108;-81
2023/09/15 04:20:25;;;;;;;24.80;13.73;;;;;;;;;;5034638;28;20392;-81
2023/09/15 04:22:50;;;;;;;26.08;14.95;;;;;;;;;;5063214;28;20057;-82
2023/09/15 04:25:16;;;;;;;31.08;14.70;;;;;;;;;;5034415;28;20140;-80
2023/09/15 04:27:42;;;;;;;24.08;13.13;;;;;;;;;;5073308;28;20034;-81
2023/09/15 04:30:07;;;;;;;26.67;13.68;;;;;;;;;;5037818;28;20027;-82
2023/09/15 04:32:32;;;;;;;27.88;13.65;;;;;;;;;;5036177;28;20082;-83
2023/09/15 04:34:58;;;;;;;31.17;14.45;;;;;;;;;;5042976;28;20926;-82
2023/09/15 04:37:23;;;;;;;22.55;13.38;;;;;;;;;;5026037;28;20090;-83
2023/09/15 04:39:53;;;;;;;24.37;13.87;;;;;;;;;;5024182;28;20756;-79
2023/09/15 04:42:19;;;;;;;25.83;13.63;;;;;;;;;;5028447;28;20326;-82
2023/09/15 04:44:44;;;;;;;26.45;13.63;;;;;;;;;;5041138;28;20066;-82
2023/09/15 04:47:12;;;;;;;27.20;14.20;;;;;;;;;;5057165;28;20021;-81
2023/09/15 04:49:37;;;;;;;23.40;12.50;;;;;;;;;;5036278;28;20262;-82
2023/09/15 04:52:03;;;;;;;24.37;13.03;;;;;;;;;;5028651;28;20026;-82
2023/09/15 04:54:28;;;;;;;24.30;12.88;;;;;;;;;;5033792;28;20303;-82
2023/09/15 04:56:54;;;;;;;29.92;14.20;;;;;;;;;;5045809;28;20107;-82
2023/09/15 04:59:19;;;;;;;23.75;12.13;;;;;;;;;;5028873;28;20468;-80
2023/09/15 05:01:48;;;;;;;18.90;12.10;;;;;;;;;;5062839;28;20108;-80
2023/09/15 05:04:19;;;;;;;20.17;13.23;;;;;;;;;;5072759;28;20028;-80
2023/09/15 05:06:44;;;;;;;31.02;13.07;;;;;;;;;;5036992;28;20067;-80
2023/09/15 05:09:10;;;;;;;28.20;12.40;;;;;;;;;;5016594;28;20033;-80
2023/09/15 05:11:38;;;;;;;24.20;12.88;;;;;;;;;;5032815;28;20026;-81
2023/09/15 05:14:03;;;;;;;23.35;13.27;;;;;;;;;;5027750;28;20025;-81
2023/09/15 05:16:29;;;;;;;26.77;12.55;;;;;;;;;;5054210;28;20029;-81
2023/09/15 05:18:54;;;;;;;24.27;12.90;;;;;;;;;;5037616;28;20017;-81
2023/09/15 05:21:20;;;;;;;31.77;13.48;;;;;;;;;;5040250;28;20083;-80
2023/09/15 05:23:45;;;;;;;26.33;13.10;;;;;;;;;;5040778;28;20045;-80
2023/09/15 05:26:10;;;;;;;25.30;13.02;;;;;;;;;;5018069;28;20323;-80
2023/09/15 05:28:35;;;;;;;20.27;12.60;;;;;;;;;;5069030;28;20373;-80
2023/09/15 05:31:01;;;;;;;24.23;11.87;;;;;;;;;;5038047;28;20495;-80
2023/09/15 05:33:26;;;;;;;21.93;11.67;;;;;;;;;;5017022;28;20381;-81
2023/09/15 05:35:55;;;;;;;23.00;13.02;;;;;;;;;;5048893;28;20025;-80
2023/09/15 05:38:21;;;;;;;22.38;12.05;;;;;;;;;;5040504;28;20523;-81
2023/09/15 05:40:46;;;;;;;18.10;11.75;;;;;;;;;;5040956;28;20391;-80
2023/09/15 05:43:12;;;;;;;20.37;12.80;;;;;;;;;;5038402;28;20025;-81
2023/09/15 05:45:37;;;;;;;24.90;11.97;;;;;;;;;;5048403;28;20276;-80
2023/09/15 05:48:03;;;;;;;22.58;11.90;;;;;;;;;;5022192;28;20282;-80
2023/09/15 05:50:28;;;;;;;29.20;12.40;;;;;;;;;;5054742;28;20021;-80
2023/09/15 05:52:53;;;;;;;26.05;13.23;;;;;;;;;;5074938;28;20021;-81
2023/09/15 05:55:19;;;;;;;26.57;12.93;;;;;;;;;;5021139;28;20036;-80
2023/09/15 05:57:44;;;;;;;18.88;11.25;;;;;;;;;;5029697;28;20297;-80
2023/09/15 06:00:10;;;;;;;22.80;11.97;;;;;;;;;;5014803;28;20033;-80
2023/09/15 06:02:36;;;;;;;25.70;11.25;;;;;;;;;;5034227;28;20288;-81
2023/09/15 06:05:03;;;;;;;21.73;11.35;;;;;;;;;;5035620;28;20487;-81
2023/09/15 06:07:28;;;;;;;20.42;11.38;;;;;;;;;;5042604;28;20037;-81
2023/09/15 06:09:53;;;;;;;28.60;12.17;;;;;;;;;;5038643;28;20171;-80
2023/09/15 06:12:18;;;;;;;19.53;11.53;;;;;;;;;;5037431;28;20284;-80
2023/09/15 06:14:44;;;;;;;29.47;13.03;;;;;;;;;;5052208;28;20286;-80
2023/09/15 06:17:09;;;;;;;29.30;11.77;;;;;;;;;;5019511;28;21503;-80
2023/09/15 06:19:34;;;;;;;20.05;11.40;;;;;;;;;;5036759;28;20290;-79
2023/09/15 06:22:00;;;;;;;18.65;10.50;;;;;;;;;;5022852;28;20021;-83
2023/09/15 06:24:25;;;;;;;21.48;9.85;;;;;;;;;;5029988;28;20042;-81
2023/09/15 06:26:52;;;;;;;19.80;9.27;;;;;;;;;;5038374;28;20442;-80
2023/09/15 06:29:17;;;;;;;18.25;9.88;;;;;;;;;;5031041;28;20280;-81
2023/09/15 06:31:43;;;;;;;14.80;9.17;;;;;;;;;;5037018;28;20104;-82
2023/09/15 06:34:08;;;;;;;17.97;8.97;;;;;;;;;;5034636;28;20650;-81
2023/09/15 06:36:33;;;;;;;17.90;9.07;;;;;;;;;;5025614;28;20377;-81
2023/09/15 06:38:58;;;;;;;19.30;7.65;;;;;;;;;;5034245;28;20025;-82
2023/09/15 06:41:25;;;;;;;12.87;8.27;;;;;;;;;;5040401;28;20036;-86
2023/09/15 06:43:50;;;;;;;23.00;8.52;;;;;;;;;;5023188;28;20291;-88
2023/09/15 06:46:21;;;;;;;13.88;7.47;;;;;;;;;;5043996;28;20025;-87
2023/09/15 06:48:47;;;;;;;15.65;7.13;;;;;;;;;;5034827;28;20029;-90
2023/09/15 06:51:13;;;;;;;15.18;8.05;;;;;;;;;;5019310;28;20028;-87
2023/09/15 06:53:38;;;;;;;18.75;8.65;;;;;;;;;;5036012;28;20025;-87
2023/09/15 06:56:04;;;;;;;15.17;7.57;;;;;;;;;;5044591;28;20028;-85
2023/09/15 06:58:30;;;;;;;16.42;7.90;;;;;;;;;;5046731;28;20259;-88
2023/09/15 07:00:55;;;;;;;11.50;7.80;;;;;;;;;;5039102;28;20891;-85
2023/09/15 07:03:21;;;;;;;14.55;7.57;;;;;;;;;;5037365;28;20287;-88
2023/09/15 07:05:46;;;;;;;18.08;8.38;;;;;;;;;;5074172;28;20017;-89
2023/09/15 07:08:11;;;;;;;18.23;7.90;;;;;;;;;;5040875;28;20017;-88
2023/09/15 07:10:37;;;;;;;15.17;7.73;;;;;;;;;;5042895;28;20742;-87
2023/09/15 07:13:02;;;;;;;14.20;7.95;;;;;;;;;;5031387;28;20271;-87
2023/09/15 07:15:30;;;;;;;18.15;7.82;;;;;;;;;;5049324;28;20021;-87
2023/09/15 07:17:55;;;;;;;12.05;7.55;;;;;;;;;;5038254;28;20018;-87
2023/09/15 07:20:20;;;;;;;11.33;6.87;;;;;;;;;;5038555;28;20116;-87
2023/09/15 07:22:47;;;;;;;16.97;7.60;;;;;;;;;;5062274;28;20298;-87
2023/09/15 07:25:13;;;;;;;12.35;7.20;;;;;;;;;;5062798;28;20099;-87
2023/09/15 07:27:38;;;;;;;17.38;7.80;;;;;;;;;;5043138;28;20024;-87
2023/09/15 07:30:04;;;;;;;14.83;7.40;;;;;;;;;;5017052;28;20057;-87
2023/09/15 07:32:29;;;;;;;14.10;7.68;;;;;;;;;;5039070;28;20326;-87
2023/09/15 07:34:55;;;;;;;17.63;8.32;;;;;;;;;;5043088;28;20022;-88
2023/09/15 07:37:20;;;;;;;12.53;8.30;;;;;;;;;;5046171;28;20029;-87
2023/09/15 07:39:45;;;;;;;14.53;7.97;;;;;;;;;;5041017;28;20279;-87
2023/09/15 07:42:10;;;;;;;10.90;6.83;;;;;;;;;;5038212;28;20295;-87
2023/09/15 07:44:37;;;;;;;15.27;7.65;;;;;;;;;;5050464;28;20951;-86
2023/09/15 07:47:04;;;;;;;13.65;7.45;;;;;;;;;;5044967;28;20364;-87
2023/09/15 07:49:29;;;;;;;13.10;7.57;;;;;;;;;;5079308;28;20429;-87
2023/09/15 07:51:54;;;;;;;13.45;6.85;;;;;;;;;;5046087;28;20080;-81
2023/09/15 07:54:20;;;;;;;13.32;7.95;;;;;;;;;;5035711;28;20021;-81
2023/09/15 07:56:45;;;;;;;17.50;8.32;;;;;;;;;;5040243;28;20026;-81
2023/09/15 07:59:10;;;;;;;11.03;8.07;;;;;;;;;;5043582;28;20025;-81
2023/09/15 08:01:37;;;;;;;13.32;8.43;;;;;;;;;;5040593;28;20287;-81
2023/09/15 08:04:02;;;;;;;16.60;8.38;;;;;;;;;;5043340;28;20137;-81
2023/09/15 08:06:28;;;;;;;16.83;7.93;;;;;;;;;;5046594;28;20067;-81
2023/09/15 08:08:54;;;;;;;12.75;6.93;;;;;;;;;;5044857;28;20139;-81
2023/09/15 08:11:19;;;;;;;13.88;7.82;;;;;;;;;;5041669;28;20029;-81
2023/09/15 08:13:44;;;;;;;14.10;6.97;;;;;;;;;;5037277;28;20104;-81
2023/09/15 08:16:09;;;;;;;13.40;7.33;;;;;;;;;;5060312;28;20938;-81
2023/09/15 08:18:35;;;;;;;14.40;7.40;;;;;;;;;;5045545;28;20272;-81
2023/09/15 08:21:00;;;;;;;13.00;7.07;;;;;;;;;;5041102;28;20060;-81
2023/09/15 08:23:25;;;;;;;14.80;6.87;;;;;;;;;;5060896;28;20341;-81
2023/09/15 08:25:50;;;;;;;12.50;6.70;;;;;;;;;;5041752;28;20055;-81
2023/09/15 08:28:16;;;;;;;18.00;7.40;;;;;;;;;;5023969;28;20287;-81
2023/09/15 08:30:41;;;;;;;15.30;7.13;;;;;;;;;;5042618;28;20029;-81
2023/09/15 08:33:06;;;;;;;16.52;6.63;;;;;;;;;;5078288;28;20286;-81
2023/09/15 08:35:32;;;;;;;14.47;7.83;;;;;;;;;;5040624;28;20487;-82
2023/09/15 08:37:58;;;;;;;14.73;7.15;;;;;;;;;;5047125;28;20268;-82
2023/09/15 08:40:23;;;;;;;13.18;6.22;;;;;;;;;;5038436;28;20029;-81
2023/09/15 08:42:48;;;;;;;14.07;6.82;;;;;;;;;;5069549;28;20025;-82
2023/09/15 08:45:14;;;;;;;9.95;6.22;;;;;;;;;;5038223;28;20025;-81
2023/09/15 08:47:43;;;;;;;13.48;6.32;;;;;;;;;;5057020;28;20033;-81
2023/09/15 08:50:09;;;;;;;14.50;6.97;;;;;;;;;;5042175;28;20021;-81
2023/09/15 08:52:35;;;;;;;12.50;6.95;;;;;;;;;;5039512;28;20027;-81
2023/09/15 08:55:01;;;;;;;13.07;6.30;;;;;;;;;;5037727;28;20017;-81
2023/09/15 08:57:29;;;;;;;11.57;6.53;;;;;;;;;;5041823;28;20025;-81
2023/09/15 08:59:54;;;;;;;10.05;5.72;;;;;;;;;;5046624;28;20480;-81
2023/09/15 09:02:21;;;;;;;11.32;5.90;;;;;;;;;;5041181;28;20040;-88
2023/09/15 09:04:46;;;;;;;11.98;6.53;;;;;;;;;;5060935;28;20383;-88
2023/09/15 09:07:12;;;;;;;9.60;6.40;;;;;;;;;;5023060;28;20104;-88
2023/09/15 09:09:38;;;;;;;12.95;6.28;;;;;;;;;;5041329;28;20095;-88
2023/09/15 09:12:03;;;;;;;9.88;6.13;;;;;;;;;;5045781;28;20053;-88
2023/09/15 09:14:29;;;;;;;13.30;6.47;;;;;;;;;;5040505;28;20041;-87
2023/09/15 09:16:55;;;;;;;14.50;5.70;;;;;;;;;;5040981;28;20033;-88
2023/09/15 09:19:20;;;;;;;8.98;5.00;;;;;;;;;;5034663;28;20632;-88
2023/09/15 09:21:46;;;;;;;12.30;5.72;;;;;;;;;;5041091;28;20036;-88
2023/09/15 09:24:12;;;;;;;10.88;6.20;;;;;;;;;;5042149;28;20052;-87
2023/09/15 09:26:37;;;;;;;9.13;5.17;;;;;;;;;;5041734;28;20068;-88
2023/09/15 09:29:03;;;;;;;11.15;5.50;;;;;;;;;;5074535;28;20033;-87
2023/09/15 09:31:29;;;;;;;15.98;6.50;;;;;;;;;;5059090;28;20033;-87
2023/09/15 09:33:55;;;;;;;12.95;6.03;;;;;;;;;;5036887;28;20026;-88
2023/09/15 09:36:20;;;;;;;15.38;6.28;;;;;;;;;;5042094;28;20025;-88
2023/09/15 09:38:50;;;;;;;8.95;6.50;;;;;;;;;;5045598;28;20502;-88
2023/09/15 09:41:16;;;;;;;11.10;5.68;;;;;;;;;;5036536;28;20587;-88
2023/09/15 09:43:48;;;;;;;16.08;6.13;;;;;;;;;;5035716;28;20104;-87
2023/09/15 09:46:23;;;;;;;7.03;5.18;;;;;;;;;;5042977;28;20028;-89
2023/09/15 09:48:49;;;;;;;14.63;5.32;;;;;;;;;;5037917;28;20086;-88
2023/09/15 09:51:16;;;;;;;8.45;4.90;;;;;;;;;;5039416;28;20020;-88
2023/09/15 09:53:41;;;;;;;11.02;3.67;;;;;;;;;;5033738;28;20025;-89
2023/09/15 09:56:06;;;;;;;10.10;5.80;;;;;;;;;;5046845;28;20036;-89
2023/09/15 09:58:32;;;;;;;12.95;5.90;;;;;;;;;;5034950;28;20039;-88
2023/09/15 10:00:58;;;;;;;11.95;5.05;;;;;;;;;;5036921;28;20032;-88
2023/09/15 10:03:23;;;;;;;8.85;4.30;;;;;;;;;;5044076;28;20021;-88
2023/09/15 10:05:49;;;;;;;10.20;5.20;;;;;;;;;;5043202;28;20045;-88
2023/09/15 10:08:15;;;;;;;11.57;5.55;;;;;;;;;;5043917;28;20480;-88
2023/09/15 10:10:46;;;;;;;9.13;5.45;;;;;;;;;;5080161;28;20013;-88
2023/09/15 10:13:15;;;;;;;11.73;5.35;;;;;;;;;;5041254;28;20017;-87
2023/09/15 10:15:41;;;;;;;9.05;5.57;;;;;;;;;;5041052;28;20083;-87
2023/09/15 10:18:08;;;;;;;10.95;4.47;;;;;;;;;;5040895;28;20488;-88
2023/09/15 10:20:34;;;;;;;12.35;5.13;;;;;;;;;;5041422;28;20028;-88
2023/09/15 10:23:00;;;;;;;12.73;6.05;;;;;;;;;;5042163;28;20048;-88
2023/09/15 10:25:25;;;;;;;11.13;5.25;;;;;;;;;;5044077;28;20040;-88
2023/09/15 10:27:50;;;;;;;10.13;4.70;;;;;;;;;;5055002;28;20025;-88
2023/09/15 10:30:15;;;;;;;13.13;4.30;;;;;;;;;;5025230;28;20017;-89
2023/09/15 10:32:42;;;;;;;11.70;4.70;;;;;;;;;;5038933;28;20279;-87
2023/09/15 10:35:08;;;;;;;14.45;5.30;;;;;;;;;;5041339;28;20303;-88
2023/09/15 10:37:34;;;;;;;11.18;5.07;;;;;;;;;;5041636;28;20502;-88
2023/09/15 10:40:00;;;;;;;11.02;3.88;;;;;;;;;;5037963;28;20025;-88
2023/09/15 10:42:28;;;;;;;12.30;4.20;;;;;;;;;;5045660;28;21121;-88
2023/09/15 10:44:54;;;;;;;8.25;4.05;;;;;;;;;;5035708;28;20291;-88
2023/09/15 10:47:20;;;;;;;9.90;4.38;;;;;;;;;;5046200;28;20025;-88
2023/09/15 10:49:52;;;;;;;11.20;4.68;;;;;;;;;;5040612;28;20090;-88
2023/09/15 10:52:18;;;;;;;9.98;4.63;;;;;;;;;;5024164;28;20025;-88
2023/09/15 10:54:47;;;;;;;12.02;3.97;;;;;;;;;;5037014;28;20018;-88
2023/09/15 10:57:14;;;;;;;9.93;3.80;;;;;;;;;;5047239;28;20017;-88
2023/09/15 10:59:39;;;;;;;12.25;3.65;;;;;;;;;;5044038;28;20010;-89
2023/09/15 11:02:04;;;;;;;6.37;3.03;;;;;;;;;;5017591;28;20044;-89
2023/09/15 11:04:30;;;;;;;6.93;3.23;;;;;;;;;;5025102;28;20271;-88
2023/09/15 11:06:56;;;;;;;12.38;2.50;;;;;;;;;;5032084;28;20269;-88
2023/09/15 11:09:22;;;;;;;9.77;2.80;;;;;;;;;;5042253;28;20022;-87
2023/09/15 11:11:50;;;;;;;9.30;2.97;;;;;;;;;;5040423;28;20040;-88
2023/09/15 11:14:19;;;;;;;5.93;2.42;;;;;;;;;;5044514;28;20033;-88
2023/09/15 11:16:49;;;;;;;6.35;2.83;;;;;;;;;;5034575;28;20026;-87
2023/09/15 11:19:16;;;;;;;9.07;2.75;;;;;;;;;;5034010;28;20049;-88
2023/09/15 11:21:41;;;;;;;6.88;2.72;;;;;;;;;;5048425;28;20107;-81
2023/09/15 11:24:08;;;;;;;7.78;3.33;;;;;;;;;;5035472;28;20487;-81
2023/09/15 11:26:33;;;;;;;9.23;2.88;;;;;;;;;;5072517;28;20506;-82
2023/09/15 11:28:59;;;;;;;7.17;2.70;;;;;;;;;;5035615;28;20029;-81
2023/09/15 11:31:25;;;;;;;12.52;2.42;;;;;;;;;;5043857;28;20380;-81
2023/09/15 11:33:52;;;;;;;9.98;3.10;;;;;;;;;;5040846;28;20025;-81
2023/09/15 11:36:20;;;;;;;5.18;2.67;;;;;;;;;;5042064;28;20170;-81
2023/09/15 11:38:46;;;;;;;7.30;2.85;;;;;;;;;;5038862;28;20491;-81
2023/09/15 11:41:12;;;;;;;8.38;2.80;;;;;;;;;;5040142;28;20018;-81
2023/09/15 11:43:38;;;;;;;12.48;3.65;;;;;;;;;;5050393;28;20036;-81
2023/09/15 11:46:07;;;;;;;8.70;3.00;;;;;;;;;;5042432;28;20088;-82
2023/09/15 11:48:38;;;;;;;4.13;2.80;;;;;;;;;;5048867;28;20029;-81
2023/09/15 11:51:04;;;;;;;9.70;2.92;;;;;;;;;;5041108;28;20021;-81
2023/09/15 11:53:29;;;;;;;9.60;2.70;;;;;;;;;;5043162;28;20510;-81
2023/09/15 11:55:55;;;;;;;5.25;2.53;;;;;;;;;;5039798;28;20447;-81
2023/09/15 11:58:21;;;;;;;4.00;2.30;;;;;;;;;;5045957;28;20049;-81
2023/09/15 12:00:46;;;;;;;8.38;3.20;;;;;;;;;;5042065;28;20167;-81
2023/09/15 12:03:11;;;;;;;5.63;2.47;;;;;;;;;;5044879;28;20033;-81
2023/09/15 12:05:36;;;;;;;6.43;2.28;;;;;;;;;;5027976;28;20252;-81
2023/09/15 12:08:02;;;;;;;7.10;3.07;;;;;;;;;;5041778;28;20098;-81
2023/09/15 12:10:28;;;;;;;7.13;3.08;;;;;;;;;;5062337;28;20267;-81
2023/09/15 12:12:57;;;;;;;12.90;3.38;;;;;;;;;;5047562;28;20117;-81
2023/09/15 12:15:27;;;;;;;6.47;2.55;;;;;;;;;;5043090;28;20040;-81
2023/09/15 12:17:52;;;;;;;5.03;2.53;;;;;;;;;;5040168;28;20493;-82
2023/09/15 12:20:22;;;;;;;5.82;2.50;;;;;;;;;;5046149;28;20031;-82
2023/09/15 12:22:47;;;;;;;7.10;2.80;;;;;;;;;;5039007;28;20496;-82
2023/09/15 12:25:16;;;;;;;5.03;2.25;;;;;;;;;;5081538;28;20043;-82
2023/09/15 12:27:42;;;;;;;8.10;2.67;;;;;;;;;;5045879;28;20385;-82
2023/09/15 12:30:11;;;;;;;4.68;2.33;;;;;;;;;;5043578;28;20543;-88
2023/09/15 12:32:37;;;;;;;6.13;2.50;;;;;;;;;;5037195;28;20485;-88
2023/09/15 12:35:08;;;;;;;4.85;2.47;;;;;;;;;;5054099;28;20123;-88
2023/09/15 12:37:34;;;;;;;3.50;2.20;;;;;;;;;;5047125;28;20436;-88
2023/09/15 12:39:59;;;;;;;3.87;1.80;;;;;;;;;;5050060;28;20017;-88
2023/09/15 12:42:24;;;;;;;4.87;1.93;;;;;;;;;;5044124;28;20260;-88
2023/09/15 12:44:50;;;;;;;7.93;2.10;;;;;;;;;;5038988;28;20284;-89
2023/09/15 12:47:16;;;;;;;6.88;2.10;;;;;;;;;;5025662;28;20758;-87
2023/09/15 12:49:42;;;;;;;5.72;2.10;;;;;;;;;;5039999;28;20041;-89
2023/09/15 12:52:07;;;;;;;7.22;1.75;;;;;;;;;;5041175;28;20460;-88
2023/09/15 12:54:32;;;;;;;5.90;2.30;;;;;;;;;;5040959;28;20021;-88
2023/09/15 12:56:58;;;;;;;4.95;2.00;;;;;;;;;;5030699;28;20021;-89
2023/09/15 12:59:27;;;;;;;5.50;2.03;;;;;;;;;;5040769;28;20021;-88
2023/09/15 13:01:56;;;;;;;4.57;2.20;;;;;;;;;;5037910;28;20328;-89
2023/09/15 13:04:22;;;;;;;4.40;2.25;;;;;;;;;;5054346;28;20031;-88
2023/09/15 13:06:48;;;;;;;5.80;1.77;;;;;;;;;;5037845;28;20017;-88
2023/09/15 13:09:14;;;;;;;4.85;1.90;;;;;;;;;;5043054;28;20022;-88
2023/09/15 13:11:39;;;;;;;5.28;2.10;;;;;;;;;;5041559;28;20506;-88
2023/09/15 13:14:05;;;;;;;3.40;1.95;;;;;;;;;;5047236;28;20017;-88
2023/09/15 13:16:31;;;;;;;3.58;1.92;;;;;;;;;;5051594;28;20021;-88
2023/09/15 13:18:56;;;;;;;2.92;1.75;;;;;;;;;;5076600;28;20116;-89
2023/09/15 13:21:22;;;;;;;9.38;2.28;;;;;;;;;;5042091;28;20577;-89
2023/09/15 13:23:48;;;;;;;3.00;1.58;;;;;;;;;;5042571;28;20025;-88
2023/09/15 13:26:13;;;;;;;3.75;2.00;;;;;;;;;;5025790;28;20133;-89
2023/09/15 13:28:39;;;;;;;7.57;2.40;;;;;;;;;;5068044;28;20108;-88
2023/09/15 13:31:05;;;;;;;4.28;1.80;;;;;;;;;;5045253;28;20021;-88
2023/09/15 13:33:30;;;;;;;9.80;2.38;;;;;;;;;;5039035;28;20120;-88
2023/09/15 13:35:56;;;;;;;6.88;1.75;;;;;;;;;;5045714;28;20174;-88
2023/09/15 13:38:21;;;;;;;3.47;1.90;;;;;;;;;;5044154;28;20029;-89
2023/09/15 13:40:46;;;;;;;3.85;2.15;;;;;;;;;;5036227;28;20072;-82
2023/09/15 13:43:11;;;;;;;2.90;1.77;;;;;;;;;;5019121;28;20036;-82
2023/09/15 13:45:38;;;;;;;18.00;2.40;;;;;;;;;;5042978;28;20032;-81
2023/09/15 13:48:04;;;;;;;4.78;2.10;;;;;;;;;;5036641;28;20069;-81
2023/09/15 13:50:29;;;;;;;4.90;2.00;;;;;;;;;;5040589;28;20507;-81
2023/09/15 13:52:54;;;;;;;5.65;2.00;;;;;;;;;;5038911;28;20026;-81
2023/09/15 13:55:20;;;;;;;4.13;1.80;;;;;;;;;;5034747;28;20040;-82
2023/09/15 13:57:45;;;;;;;4.47;1.90;;;;;;;;;;5042947;28;20663;-81
2023/09/15 14:00:10;;;;;;;12.40;2.60;;;;;;;;;;5026334;28;20017;-82
2023/09/15 14:02:38;;;;;;;5.85;2.00;;;;;;;;;;5018576;28;20790;-81
2023/09/15 14:05:03;;;;;;;6.25;2.00;;;;;;;;;;5046558;28;20017;-82
2023/09/15 14:07:29;;;;;;;3.45;1.85;;;;;;;;;;5043519;28;20027;-82
2023/09/15 14:09:54;;;;;;;7.25;2.67;;;;;;;;;;5037302;28;20037;-82
2023/09/15 14:12:19;;;;;;;5.83;1.93;;;;;;;;;;5042030;28;20391;-82
2023/09/15 14:14:45;;;;;;;3.53;1.80;;;;;;;;;;5023573;28;20024;-82
2023/09/15 14:17:10;;;;;;;5.07;2.38;;;;;;;;;;5035016;28;20279;-81
2023/09/15 14:19:35;;;;;;;3.23;1.90;;;;;;;;;;5041328;28;20033;-82
2023/09/15 14:22:01;;;;;;;3.38;2.13;;;;;;;;;;5030374;28;20453;-82